sensor_id;sensor_type;location;lat;lon;timestamp;P1;durP1;ratioP1;P2;durP2;ratioP2
68178;SDS011;69812;42.632;23.440;2023-10-31T00:01:34;11.65;;;6.72;;
68178;SDS011;69812;42.632;23.440;2023-10-31T00:04:00;14.40;;;6.90;;
68178;SDS011;69812;42.632;23.440;2023-10-31T00:06:25;11.02;;;6.25;;
68178;SDS011;69812;42.632;23.440;2023-10-31T00:08:50;10.18;;;6.35;;
68178;SDS011;69812;42.632;23.440;2023-10-31T00:11:16;13.93;;;5.68;;
68178;SDS011;69812;42.632;23.440;2023-10-31T00:13:41;11.93;;;6.22;;
68178;SDS011;69812;42.632;23.440;2023-10-31T00:16:07;16.00;;;7.18;;
68178;SDS011;69812;42.632;23.440;2023-10-31T00:18:34;12.85;;;7.07;;
68178;SDS011;69812;42.632;23.440;2023-10-31T00:21:00;15.32;;;7.05;;
68178;SDS011;69812;42.632;23.440;2023-10-31T00:23:29;13.75;;;6.63;;
68178;SDS011;69812;42.632;23.440;2023-10-31T00:25:54;11.15;;;6.47;;
68178;SDS011;69812;42.632;23.440;2023-10-31T00:28:19;11.82;;;6.68;;
68178;SDS011;69812;42.632;23.440;2023-10-31T00:30:50;11.95;;;5.97;;
68178;SDS011;69812;42.632;23.440;2023-10-31T00:33:16;10.27;;;6.40;;
68178;SDS011;69812;42.632;23.440;2023-10-31T00:35:41;12.35;;;7.55;;
68178;SDS011;69812;42.632;23.440;2023-10-31T00:38:09;15.70;;;7.10;;
68178;SDS011;69812;42.632;23.440;2023-10-31T00:40:34;15.02;;;7.15;;
68178;SDS011;69812;42.632;23.440;2023-10-31T00:43:00;14.10;;;7.45;;
68178;SDS011;69812;42.632;23.440;2023-10-31T00:45:26;11.00;;;6.82;;
68178;SDS011;69812;42.632;23.440;2023-10-31T00:47:51;11.88;;;5.90;;
68178;SDS011;69812;42.632;23.440;2023-10-31T00:50:16;14.07;;;7.63;;
68178;SDS011;69812;42.632;23.440;2023-10-31T00:52:42;14.15;;;7.53;;
68178;SDS011;69812;42.632;23.440;2023-10-31T00:55:07;13.60;;;6.55;;
68178;SDS011;69812;42.632;23.440;2023-10-31T00:57:35;14.20;;;6.97;;
68178;SDS011;69812;42.632;23.440;2023-10-31T01:00:00;14.68;;;7.13;;
68178;SDS011;69812;42.632;23.440;2023-10-31T01:02:26;14.23;;;7.00;;
68178;SDS011;69812;42.632;23.440;2023-10-31T01:04:51;12.60;;;7.10;;
68178;SDS011;69812;42.632;23.440;2023-10-31T01:07:26;10.95;;;6.80;;
68178;SDS011;69812;42.632;23.440;2023-10-31T01:09:51;13.05;;;6.72;;
68178;SDS011;69812;42.632;23.440;2023-10-31T01:12:17;12.75;;;7.18;;
68178;SDS011;69812;42.632;23.440;2023-10-31T01:14:42;10.32;;;6.43;;
68178;SDS011;69812;42.632;23.440;2023-10-31T01:17:09;10.55;;;6.45;;
68178;SDS011;69812;42.632;23.440;2023-10-31T01:19:36;18.17;;;7.28;;
68178;SDS011;69812;42.632;23.440;2023-10-31T01:22:04;11.80;;;5.78;;
68178;SDS011;69812;42.632;23.440;2023-10-31T01:24:29;11.18;;;7.25;;
68178;SDS011;69812;42.632;23.440;2023-10-31T01:26:55;12.45;;;6.40;;
68178;SDS011;69812;42.632;23.440;2023-10-31T01:29:20;12.80;;;7.10;;
68178;SDS011;69812;42.632;23.440;2023-10-31T01:31:46;12.00;;;6.35;;
68178;SDS011;69812;42.632;23.440;2023-10-31T01:34:11;8.77;;;5.20;;
68178;SDS011;69812;42.632;23.440;2023-10-31T01:36:36;11.50;;;5.63;;
68178;SDS011;69812;42.632;23.440;2023-10-31T01:39:02;10.18;;;5.28;;
68178;SDS011;69812;42.632;23.440;2023-10-31T01:41:27;11.55;;;6.10;;
68178;SDS011;69812;42.632;23.440;2023-10-31T01:43:53;9.20;;;5.85;;
68178;SDS011;69812;42.632;23.440;2023-10-31T01:46:21;13.80;;;5.95;;
68178;SDS011;69812;42.632;23.440;2023-10-31T01:48:49;12.10;;;5.38;;
68178;SDS011;69812;42.632;23.440;2023-10-31T01:51:17;11.68;;;5.55;;
68178;SDS011;69812;42.632;23.440;2023-10-31T01:53:42;10.75;;;5.82;;
68178;SDS011;69812;42.632;23.440;2023-10-31T01:56:08;8.93;;;5.95;;
68178;SDS011;69812;42.632;23.440;2023-10-31T01:58:36;8.35;;;5.40;;
68178;SDS011;69812;42.632;23.440;2023-10-31T02:01:02;10.70;;;5.53;;
68178;SDS011;69812;42.632;23.440;2023-10-31T02:03:29;12.68;;;6.55;;
68178;SDS011;69812;42.632;23.440;2023-10-31T02:05:55;10.85;;;5.63;;
68178;SDS011;69812;42.632;23.440;2023-10-31T02:08:21;18.65;;;6.38;;
68178;SDS011;69812;42.632;23.440;2023-10-31T02:10:49;11.57;;;6.15;;
68178;SDS011;69812;42.632;23.440;2023-10-31T02:13:15;13.95;;;7.55;;
68178;SDS011;69812;42.632;23.440;2023-10-31T02:15:42;13.68;;;6.72;;
68178;SDS011;69812;42.632;23.440;2023-10-31T02:18:08;10.50;;;6.22;;
68178;SDS011;69812;42.632;23.440;2023-10-31T02:20:34;16.13;;;6.15;;
68178;SDS011;69812;42.632;23.440;2023-10-31T02:23:00;14.48;;;8.15;;
68178;SDS011;69812;42.632;23.440;2023-10-31T02:25:26;17.02;;;7.93;;
68178;SDS011;69812;42.632;23.440;2023-10-31T02:27:51;12.18;;;6.95;;
68178;SDS011;69812;42.632;23.440;2023-10-31T02:30:17;12.55;;;6.50;;
68178;SDS011;69812;42.632;23.440;2023-10-31T02:32:43;14.85;;;7.20;;
68178;SDS011;69812;42.632;23.440;2023-10-31T02:35:08;15.73;;;7.43;;
68178;SDS011;69812;42.632;23.440;2023-10-31T02:37:37;16.95;;;6.13;;
68178;SDS011;69812;42.632;23.440;2023-10-31T02:40:02;14.25;;;6.95;;
68178;SDS011;69812;42.632;23.440;2023-10-31T02:42:28;12.95;;;6.55;;
68178;SDS011;69812;42.632;23.440;2023-10-31T02:44:54;12.98;;;7.55;;
68178;SDS011;69812;42.632;23.440;2023-10-31T02:47:19;11.50;;;7.05;;
68178;SDS011;69812;42.632;23.440;2023-10-31T02:49:44;9.35;;;6.47;;
68178;SDS011;69812;42.632;23.440;2023-10-31T02:52:10;14.45;;;6.18;;
68178;SDS011;69812;42.632;23.440;2023-10-31T02:54:36;17.77;;;7.13;;
68178;SDS011;69812;42.632;23.440;2023-10-31T02:57:01;14.27;;;7.15;;
68178;SDS011;69812;42.632;23.440;2023-10-31T02:59:31;13.18;;;6.05;;
68178;SDS011;69812;42.632;23.440;2023-10-31T03:01:57;13.07;;;6.60;;
68178;SDS011;69812;42.632;23.440;2023-10-31T03:04:22;16.20;;;7.07;;
68178;SDS011;69812;42.632;23.440;2023-10-31T03:06:56;13.15;;;7.47;;
68178;SDS011;69812;42.632;23.440;2023-10-31T03:09:21;12.73;;;6.80;;
68178;SDS011;69812;42.632;23.440;2023-10-31T03:11:50;12.02;;;6.20;;
68178;SDS011;69812;42.632;23.440;2023-10-31T03:14:15;19.20;;;7.20;;
68178;SDS011;69812;42.632;23.440;2023-10-31T03:16:40;13.98;;;7.63;;
68178;SDS011;69812;42.632;23.440;2023-10-31T03:19:06;9.48;;;6.45;;
68178;SDS011;69812;42.632;23.440;2023-10-31T03:21:32;11.77;;;5.97;;
68178;SDS011;69812;42.632;23.440;2023-10-31T03:23:57;14.55;;;7.20;;
68178;SDS011;69812;42.632;23.440;2023-10-31T03:26:23;16.05;;;7.85;;
68178;SDS011;69812;42.632;23.440;2023-10-31T03:28:48;13.48;;;7.82;;
68178;SDS011;69812;42.632;23.440;2023-10-31T03:31:15;14.77;;;7.18;;
68178;SDS011;69812;42.632;23.440;2023-10-31T03:33:40;13.50;;;7.18;;
68178;SDS011;69812;42.632;23.440;2023-10-31T03:36:06;12.73;;;7.10;;
68178;SDS011;69812;42.632;23.440;2023-10-31T03:38:33;14.65;;;7.40;;
68178;SDS011;69812;42.632;23.440;2023-10-31T03:41:02;15.18;;;7.47;;
68178;SDS011;69812;42.632;23.440;2023-10-31T03:43:27;18.30;;;7.38;;
68178;SDS011;69812;42.632;23.440;2023-10-31T03:45:53;13.18;;;7.30;;
68178;SDS011;69812;42.632;23.440;2023-10-31T03:48:21;18.02;;;7.97;;
68178;SDS011;69812;42.632;23.440;2023-10-31T03:50:49;15.10;;;8.10;;
68178;SDS011;69812;42.632;23.440;2023-10-31T03:53:15;15.73;;;7.93;;
68178;SDS011;69812;42.632;23.440;2023-10-31T03:55:40;15.43;;;8.27;;
68178;SDS011;69812;42.632;23.440;2023-10-31T03:58:08;15.73;;;8.85;;
68178;SDS011;69812;42.632;23.440;2023-10-31T04:00:33;16.17;;;8.20;;
68178;SDS011;69812;42.632;23.440;2023-10-31T04:02:59;17.83;;;8.98;;
68178;SDS011;69812;42.632;23.440;2023-10-31T04:05:24;13.25;;;7.70;;
68178;SDS011;69812;42.632;23.440;2023-10-31T04:07:50;15.60;;;7.78;;
68178;SDS011;69812;42.632;23.440;2023-10-31T04:10:16;18.75;;;8.52;;
68178;SDS011;69812;42.632;23.440;2023-10-31T04:12:43;19.40;;;8.40;;
68178;SDS011;69812;42.632;23.440;2023-10-31T04:15:10;17.45;;;8.48;;
68178;SDS011;69812;42.632;23.440;2023-10-31T04:17:38;17.77;;;8.15;;
68178;SDS011;69812;42.632;23.440;2023-10-31T04:20:04;18.30;;;8.82;;
68178;SDS011;69812;42.632;23.440;2023-10-31T04:22:32;19.15;;;8.55;;
68178;SDS011;69812;42.632;23.440;2023-10-31T04:24:58;17.77;;;8.73;;
68178;SDS011;69812;42.632;23.440;2023-10-31T04:27:23;17.38;;;8.45;;
68178;SDS011;69812;42.632;23.440;2023-10-31T04:29:49;18.40;;;9.05;;
68178;SDS011;69812;42.632;23.440;2023-10-31T04:32:14;19.45;;;8.65;;
68178;SDS011;69812;42.632;23.440;2023-10-31T04:34:39;18.63;;;9.15;;
68178;SDS011;69812;42.632;23.440;2023-10-31T04:37:07;17.35;;;8.65;;
68178;SDS011;69812;42.632;23.440;2023-10-31T04:39:33;16.15;;;8.23;;
68178;SDS011;69812;42.632;23.440;2023-10-31T04:41:58;19.38;;;9.13;;
68178;SDS011;69812;42.632;23.440;2023-10-31T04:44:23;17.70;;;9.32;;
68178;SDS011;69812;42.632;23.440;2023-10-31T04:46:49;15.63;;;9.38;;
68178;SDS011;69812;42.632;23.440;2023-10-31T04:49:14;19.58;;;8.93;;
68178;SDS011;69812;42.632;23.440;2023-10-31T04:51:40;17.00;;;8.68;;
68178;SDS011;69812;42.632;23.440;2023-10-31T04:54:06;17.15;;;8.35;;
68178;SDS011;69812;42.632;23.440;2023-10-31T04:56:31;17.90;;;8.02;;
68178;SDS011;69812;42.632;23.440;2023-10-31T04:58:58;15.73;;;7.97;;
68178;SDS011;69812;42.632;23.440;2023-10-31T05:01:23;17.92;;;8.68;;
68178;SDS011;69812;42.632;23.440;2023-10-31T05:03:49;14.20;;;8.35;;
68178;SDS011;69812;42.632;23.440;2023-10-31T05:06:18;18.85;;;8.38;;
68178;SDS011;69812;42.632;23.440;2023-10-31T05:08:44;18.67;;;8.02;;
68178;SDS011;69812;42.632;23.440;2023-10-31T05:11:10;17.65;;;9.38;;
68178;SDS011;69812;42.632;23.440;2023-10-31T05:13:35;18.02;;;8.50;;
68178;SDS011;69812;42.632;23.440;2023-10-31T05:16:00;15.05;;;9.20;;
68178;SDS011;69812;42.632;23.440;2023-10-31T05:18:28;18.70;;;9.18;;
68178;SDS011;69812;42.632;23.440;2023-10-31T05:20:53;20.55;;;9.98;;
68178;SDS011;69812;42.632;23.440;2023-10-31T05:23:19;24.13;;;10.88;;
68178;SDS011;69812;42.632;23.440;2023-10-31T05:25:44;22.45;;;11.43;;
68178;SDS011;69812;42.632;23.440;2023-10-31T05:28:09;24.85;;;11.80;;
68178;SDS011;69812;42.632;23.440;2023-10-31T05:30:35;23.70;;;14.13;;
68178;SDS011;69812;42.632;23.440;2023-10-31T05:33:00;26.52;;;14.48;;
68178;SDS011;69812;42.632;23.440;2023-10-31T05:35:26;33.05;;;15.57;;
68178;SDS011;69812;42.632;23.440;2023-10-31T05:37:51;32.35;;;17.05;;
68178;SDS011;69812;42.632;23.440;2023-10-31T05:40:19;28.95;;;16.25;;
68178;SDS011;69812;42.632;23.440;2023-10-31T05:42:47;31.75;;;18.67;;
68178;SDS011;69812;42.632;23.440;2023-10-31T05:45:12;27.38;;;16.20;;
68178;SDS011;69812;42.632;23.440;2023-10-31T05:47:38;25.33;;;14.77;;
68178;SDS011;69812;42.632;23.440;2023-10-31T05:50:04;23.80;;;14.10;;
68178;SDS011;69812;42.632;23.440;2023-10-31T05:52:30;20.85;;;11.50;;
68178;SDS011;69812;42.632;23.440;2023-10-31T05:55:01;20.20;;;11.32;;
68178;SDS011;69812;42.632;23.440;2023-10-31T05:57:27;20.48;;;11.77;;
68178;SDS011;69812;42.632;23.440;2023-10-31T05:59:52;19.10;;;11.02;;
68178;SDS011;69812;42.632;23.440;2023-10-31T06:02:17;15.38;;;9.30;;
68178;SDS011;69812;42.632;23.440;2023-10-31T06:04:43;15.98;;;9.88;;
68178;SDS011;69812;42.632;23.440;2023-10-31T06:07:10;16.63;;;9.32;;
68178;SDS011;69812;42.632;23.440;2023-10-31T06:09:36;22.00;;;10.52;;
68178;SDS011;69812;42.632;23.440;2023-10-31T06:12:01;15.98;;;9.65;;
68178;SDS011;69812;42.632;23.440;2023-10-31T06:14:27;21.98;;;10.52;;
68178;SDS011;69812;42.632;23.440;2023-10-31T06:16:52;18.33;;;10.45;;
68178;SDS011;69812;42.632;23.440;2023-10-31T06:19:19;20.25;;;10.90;;
68178;SDS011;69812;42.632;23.440;2023-10-31T06:24:11;21.40;;;12.82;;
68178;SDS011;69812;42.632;23.440;2023-10-31T06:26:36;21.17;;;11.80;;
68178;SDS011;69812;42.632;23.440;2023-10-31T06:29:01;17.27;;;11.13;;
68178;SDS011;69812;42.632;23.440;2023-10-31T06:31:27;19.38;;;10.65;;
68178;SDS011;69812;42.632;23.440;2023-10-31T06:33:52;22.13;;;10.50;;
68178;SDS011;69812;42.632;23.440;2023-10-31T06:36:18;21.85;;;11.25;;
68178;SDS011;69812;42.632;23.440;2023-10-31T06:38:43;22.10;;;11.43;;
68178;SDS011;69812;42.632;23.440;2023-10-31T06:41:08;17.33;;;10.80;;
68178;SDS011;69812;42.632;23.440;2023-10-31T06:43:34;17.88;;;11.52;;
68178;SDS011;69812;42.632;23.440;2023-10-31T06:46:00;20.33;;;10.70;;
68178;SDS011;69812;42.632;23.440;2023-10-31T06:48:27;24.27;;;10.63;;
68178;SDS011;69812;42.632;23.440;2023-10-31T06:50:52;20.77;;;10.68;;
68178;SDS011;69812;42.632;23.440;2023-10-31T06:53:18;14.63;;;10.00;;
68178;SDS011;69812;42.632;23.440;2023-10-31T06:55:43;20.83;;;10.43;;
68178;SDS011;69812;42.632;23.440;2023-10-31T06:58:08;17.15;;;10.00;;
68178;SDS011;69812;42.632;23.440;2023-10-31T07:00:34;19.52;;;9.80;;
68178;SDS011;69812;42.632;23.440;2023-10-31T07:02:59;17.45;;;11.73;;
68178;SDS011;69812;42.632;23.440;2023-10-31T07:05:29;19.75;;;9.68;;
68178;SDS011;69812;42.632;23.440;2023-10-31T07:07:55;20.10;;;9.82;;
68178;SDS011;69812;42.632;23.440;2023-10-31T07:10:20;18.42;;;11.93;;
68178;SDS011;69812;42.632;23.440;2023-10-31T07:12:47;18.70;;;11.77;;
68178;SDS011;69812;42.632;23.440;2023-10-31T07:15:12;24.92;;;13.07;;
68178;SDS011;69812;42.632;23.440;2023-10-31T07:17:37;21.45;;;12.32;;
68178;SDS011;69812;42.632;23.440;2023-10-31T07:20:03;26.35;;;12.85;;
68178;SDS011;69812;42.632;23.440;2023-10-31T07:22:32;21.20;;;12.85;;
68178;SDS011;69812;42.632;23.440;2023-10-31T07:24:58;22.35;;;13.23;;
68178;SDS011;69812;42.632;23.440;2023-10-31T07:27:24;18.65;;;11.63;;
68178;SDS011;69812;42.632;23.440;2023-10-31T07:29:50;17.23;;;11.50;;
68178;SDS011;69812;42.632;23.440;2023-10-31T07:32:15;20.73;;;11.48;;
68178;SDS011;69812;42.632;23.440;2023-10-31T07:34:41;23.88;;;12.27;;
68178;SDS011;69812;42.632;23.440;2023-10-31T07:37:07;17.95;;;10.70;;
68178;SDS011;69812;42.632;23.440;2023-10-31T07:39:32;16.95;;;8.32;;
68178;SDS011;69812;42.632;23.440;2023-10-31T07:41:58;18.85;;;9.75;;
68178;SDS011;69812;42.632;23.440;2023-10-31T07:44:23;14.48;;;8.57;;
68178;SDS011;69812;42.632;23.440;2023-10-31T07:46:49;18.10;;;10.05;;
68178;SDS011;69812;42.632;23.440;2023-10-31T07:49:14;14.02;;;8.43;;
68178;SDS011;69812;42.632;23.440;2023-10-31T07:51:40;14.40;;;8.48;;
68178;SDS011;69812;42.632;23.440;2023-10-31T07:54:05;15.27;;;8.43;;
68178;SDS011;69812;42.632;23.440;2023-10-31T07:56:31;12.20;;;8.30;;
68178;SDS011;69812;42.632;23.440;2023-10-31T07:58:57;16.25;;;7.78;;
68178;SDS011;69812;42.632;23.440;2023-10-31T08:01:23;10.60;;;7.50;;
68178;SDS011;69812;42.632;23.440;2023-10-31T08:03:51;10.95;;;6.95;;
68178;SDS011;69812;42.632;23.440;2023-10-31T08:06:17;10.43;;;6.65;;
68178;SDS011;69812;42.632;23.440;2023-10-31T08:08:44;12.52;;;6.32;;
68178;SDS011;69812;42.632;23.440;2023-10-31T08:11:10;12.57;;;6.80;;
68178;SDS011;69812;42.632;23.440;2023-10-31T08:13:36;14.73;;;6.72;;
68178;SDS011;69812;42.632;23.440;2023-10-31T08:16:03;10.38;;;6.57;;
68178;SDS011;69812;42.632;23.440;2023-10-31T08:18:30;11.73;;;6.95;;
68178;SDS011;69812;42.632;23.440;2023-10-31T08:20:55;15.48;;;6.80;;
68178;SDS011;69812;42.632;23.440;2023-10-31T08:23:20;10.55;;;6.40;;
68178;SDS011;69812;42.632;23.440;2023-10-31T08:25:48;10.30;;;6.03;;
68178;SDS011;69812;42.632;23.440;2023-10-31T08:28:17;10.73;;;5.32;;
68178;SDS011;69812;42.632;23.440;2023-10-31T08:30:42;12.02;;;7.07;;
68178;SDS011;69812;42.632;23.440;2023-10-31T08:33:08;11.80;;;7.13;;
68178;SDS011;69812;42.632;23.440;2023-10-31T08:35:33;9.98;;;4.88;;
68178;SDS011;69812;42.632;23.440;2023-10-31T08:37:58;13.07;;;7.43;;
68178;SDS011;69812;42.632;23.440;2023-10-31T08:40:26;9.43;;;6.35;;
68178;SDS011;69812;42.632;23.440;2023-10-31T08:42:52;12.32;;;5.40;;
68178;SDS011;69812;42.632;23.440;2023-10-31T08:45:17;10.38;;;6.72;;
68178;SDS011;69812;42.632;23.440;2023-10-31T08:47:43;8.60;;;5.90;;
68178;SDS011;69812;42.632;23.440;2023-10-31T08:50:08;11.02;;;6.60;;
68178;SDS011;69812;42.632;23.440;2023-10-31T08:52:34;12.13;;;5.85;;
68178;SDS011;69812;42.632;23.440;2023-10-31T08:54:59;9.10;;;5.97;;
68178;SDS011;69812;42.632;23.440;2023-10-31T08:57:25;9.55;;;5.18;;
68178;SDS011;69812;42.632;23.440;2023-10-31T08:59:50;11.23;;;5.75;;
68178;SDS011;69812;42.632;23.440;2023-10-31T09:02:16;8.70;;;4.32;;
68178;SDS011;69812;42.632;23.440;2023-10-31T09:04:42;9.02;;;4.40;;
68178;SDS011;69812;42.632;23.440;2023-10-31T09:07:07;11.38;;;5.22;;
68178;SDS011;69812;42.632;23.440;2023-10-31T09:09:33;9.43;;;5.22;;
68178;SDS011;69812;42.632;23.440;2023-10-31T09:11:58;10.93;;;5.22;;
68178;SDS011;69812;42.632;23.440;2023-10-31T09:14:23;11.80;;;5.45;;
68178;SDS011;69812;42.632;23.440;2023-10-31T09:16:49;10.40;;;5.28;;
68178;SDS011;69812;42.632;23.440;2023-10-31T09:19:15;8.50;;;5.95;;
68178;SDS011;69812;42.632;23.440;2023-10-31T09:21:40;8.95;;;5.10;;
68178;SDS011;69812;42.632;23.440;2023-10-31T09:24:06;10.35;;;5.40;;
68178;SDS011;69812;42.632;23.440;2023-10-31T09:26:32;10.50;;;6.13;;
68178;SDS011;69812;42.632;23.440;2023-10-31T09:28:58;9.05;;;4.85;;
68178;SDS011;69812;42.632;23.440;2023-10-31T09:31:24;10.45;;;6.07;;
68178;SDS011;69812;42.632;23.440;2023-10-31T09:33:49;10.93;;;6.10;;
68178;SDS011;69812;42.632;23.440;2023-10-31T09:36:14;9.55;;;5.70;;
68178;SDS011;69812;42.632;23.440;2023-10-31T09:38:40;8.70;;;5.40;;
68178;SDS011;69812;42.632;23.440;2023-10-31T09:41:05;10.82;;;5.22;;
68178;SDS011;69812;42.632;23.440;2023-10-31T09:43:31;7.80;;;5.57;;
68178;SDS011;69812;42.632;23.440;2023-10-31T09:45:57;7.65;;;5.30;;
68178;SDS011;69812;42.632;23.440;2023-10-31T09:48:25;9.48;;;4.57;;
68178;SDS011;69812;42.632;23.440;2023-10-31T09:50:54;8.90;;;4.85;;
68178;SDS011;69812;42.632;23.440;2023-10-31T09:53:20;8.30;;;4.35;;
68178;SDS011;69812;42.632;23.440;2023-10-31T09:55:46;9.02;;;4.60;;
68178;SDS011;69812;42.632;23.440;2023-10-31T09:58:12;9.05;;;5.00;;
68178;SDS011;69812;42.632;23.440;2023-10-31T10:00:40;10.98;;;5.22;;
68178;SDS011;69812;42.632;23.440;2023-10-31T10:03:06;9.60;;;4.45;;
68178;SDS011;69812;42.632;23.440;2023-10-31T10:05:35;6.53;;;4.82;;
68178;SDS011;69812;42.632;23.440;2023-10-31T10:08:02;6.93;;;4.15;;
68178;SDS011;69812;42.632;23.440;2023-10-31T10:10:28;9.32;;;5.30;;
68178;SDS011;69812;42.632;23.440;2023-10-31T10:12:55;8.52;;;4.97;;
68178;SDS011;69812;42.632;23.440;2023-10-31T10:15:20;8.68;;;4.40;;
68178;SDS011;69812;42.632;23.440;2023-10-31T10:17:55;9.95;;;4.82;;
68178;SDS011;69812;42.632;23.440;2023-10-31T10:20:22;8.15;;;4.55;;
68178;SDS011;69812;42.632;23.440;2023-10-31T10:22:48;8.73;;;4.15;;
68178;SDS011;69812;42.632;23.440;2023-10-31T10:25:14;10.75;;;3.92;;
68178;SDS011;69812;42.632;23.440;2023-10-31T10:27:42;7.00;;;4.30;;
68178;SDS011;69812;42.632;23.440;2023-10-31T10:30:08;10.82;;;3.80;;
68178;SDS011;69812;42.632;23.440;2023-10-31T10:32:34;7.63;;;3.35;;
68178;SDS011;69812;42.632;23.440;2023-10-31T10:35:02;8.75;;;4.22;;
68178;SDS011;69812;42.632;23.440;2023-10-31T10:37:27;8.57;;;4.20;;
68178;SDS011;69812;42.632;23.440;2023-10-31T10:39:55;5.00;;;3.40;;
68178;SDS011;69812;42.632;23.440;2023-10-31T10:42:26;8.48;;;3.72;;
68178;SDS011;69812;42.632;23.440;2023-10-31T10:45:02;5.47;;;3.22;;
68178;SDS011;69812;42.632;23.440;2023-10-31T10:47:32;7.88;;;3.38;;
68178;SDS011;69812;42.632;23.440;2023-10-31T10:49:59;6.97;;;3.33;;
68178;SDS011;69812;42.632;23.440;2023-10-31T10:52:30;12.10;;;3.95;;
68178;SDS011;69812;42.632;23.440;2023-10-31T10:55:04;7.82;;;3.95;;
68178;SDS011;69812;42.632;23.440;2023-10-31T10:57:37;4.57;;;2.97;;
68178;SDS011;69812;42.632;23.440;2023-10-31T11:00:07;7.53;;;3.65;;
68178;SDS011;69812;42.632;23.440;2023-10-31T11:02:37;7.03;;;3.42;;
68178;SDS011;69812;42.632;23.440;2023-10-31T11:05:05;5.53;;;3.10;;
68178;SDS011;69812;42.632;23.440;2023-10-31T11:07:32;6.45;;;3.15;;
68178;SDS011;69812;42.632;23.440;2023-10-31T11:09:59;10.00;;;4.05;;
68178;SDS011;69812;42.632;23.440;2023-10-31T11:12:27;7.07;;;3.88;;
68178;SDS011;69812;42.632;23.440;2023-10-31T11:14:55;9.93;;;3.72;;
68178;SDS011;69812;42.632;23.440;2023-10-31T11:17:24;6.22;;;3.58;;
68178;SDS011;69812;42.632;23.440;2023-10-31T11:19:52;7.38;;;3.88;;
68178;SDS011;69812;42.632;23.440;2023-10-31T11:22:24;8.25;;;3.47;;
68178;SDS011;69812;42.632;23.440;2023-10-31T11:24:50;6.80;;;3.78;;
68178;SDS011;69812;42.632;23.440;2023-10-31T11:27:16;6.57;;;3.70;;
68178;SDS011;69812;42.632;23.440;2023-10-31T11:32:10;7.25;;;4.15;;
68178;SDS011;69812;42.632;23.440;2023-10-31T11:34:37;5.20;;;3.83;;
68178;SDS011;69812;42.632;23.440;2023-10-31T11:42:52;7.00;;;4.28;;
68178;SDS011;69812;42.632;23.440;2023-10-31T11:45:33;8.73;;;3.72;;
68178;SDS011;69812;42.632;23.440;2023-10-31T11:48:13;7.95;;;3.83;;
68178;SDS011;69812;42.632;23.440;2023-10-31T11:50:39;9.93;;;4.05;;
68178;SDS011;69812;42.632;23.440;2023-10-31T11:53:05;7.82;;;3.88;;
68178;SDS011;69812;42.632;23.440;2023-10-31T11:55:33;7.65;;;4.10;;
68178;SDS011;69812;42.632;23.440;2023-10-31T11:58:12;6.88;;;3.58;;
68178;SDS011;69812;42.632;23.440;2023-10-31T12:00:37;6.55;;;3.10;;
68178;SDS011;69812;42.632;23.440;2023-10-31T12:03:02;5.55;;;3.55;;
68178;SDS011;69812;42.632;23.440;2023-10-31T12:05:28;4.90;;;3.35;;
68178;SDS011;69812;42.632;23.440;2023-10-31T12:07:54;7.53;;;3.70;;
68178;SDS011;69812;42.632;23.440;2023-10-31T12:12:49;7.03;;;4.18;;
68178;SDS011;69812;42.632;23.440;2023-10-31T12:15:15;8.75;;;3.63;;
68178;SDS011;69812;42.632;23.440;2023-10-31T12:17:40;8.30;;;4.00;;
68178;SDS011;69812;42.632;23.440;2023-10-31T12:20:06;7.85;;;3.63;;
68178;SDS011;69812;42.632;23.440;2023-10-31T12:22:33;7.05;;;3.28;;
68178;SDS011;69812;42.632;23.440;2023-10-31T12:27:49;7.90;;;3.70;;
68178;SDS011;69812;42.632;23.440;2023-10-31T12:30:16;5.70;;;3.75;;
68178;SDS011;69812;42.632;23.440;2023-10-31T12:32:44;8.10;;;3.72;;
68178;SDS011;69812;42.632;23.440;2023-10-31T12:35:11;8.50;;;3.88;;
68178;SDS011;69812;42.632;23.440;2023-10-31T12:37:44;9.82;;;3.53;;
68178;SDS011;69812;42.632;23.440;2023-10-31T12:40:14;8.35;;;3.85;;
68178;SDS011;69812;42.632;23.440;2023-10-31T12:42:42;9.00;;;3.45;;
68178;SDS011;69812;42.632;23.440;2023-10-31T12:45:09;6.40;;;3.47;;
68178;SDS011;69812;42.632;23.440;2023-10-31T12:47:36;8.60;;;3.40;;
68178;SDS011;69812;42.632;23.440;2023-10-31T12:52:49;10.80;;;4.00;;
68178;SDS011;69812;42.632;23.440;2023-10-31T12:55:18;6.10;;;3.90;;
68178;SDS011;69812;42.632;23.440;2023-10-31T12:57:44;7.65;;;3.83;;
68178;SDS011;69812;42.632;23.440;2023-10-31T13:00:11;7.82;;;3.85;;
68178;SDS011;69812;42.632;23.440;2023-10-31T13:02:39;7.78;;;3.53;;
68178;SDS011;69812;42.632;23.440;2023-10-31T13:07:35;7.57;;;3.45;;
68178;SDS011;69812;42.632;23.440;2023-10-31T13:10:01;7.60;;;3.70;;
68178;SDS011;69812;42.632;23.440;2023-10-31T13:14:54;8.65;;;3.50;;
68178;SDS011;69812;42.632;23.440;2023-10-31T13:17:20;8.57;;;3.50;;
68178;SDS011;69812;42.632;23.440;2023-10-31T13:19:45;5.95;;;3.50;;
68178;SDS011;69812;42.632;23.440;2023-10-31T13:22:11;8.57;;;3.50;;
68178;SDS011;69812;42.632;23.440;2023-10-31T13:24:36;7.45;;;3.53;;
68178;SDS011;69812;42.632;23.440;2023-10-31T13:27:01;8.25;;;3.78;;
68178;SDS011;69812;42.632;23.440;2023-10-31T13:29:28;9.07;;;3.33;;
68178;SDS011;69812;42.632;23.440;2023-10-31T13:31:54;14.52;;;3.85;;
68178;SDS011;69812;42.632;23.440;2023-10-31T13:34:20;22.33;;;4.30;;
68178;SDS011;69812;42.632;23.440;2023-10-31T13:36:45;10.85;;;3.80;;
68178;SDS011;69812;42.632;23.440;2023-10-31T13:39:11;8.15;;;3.67;;
68178;SDS011;69812;42.632;23.440;2023-10-31T13:41:39;5.38;;;3.40;;
68178;SDS011;69812;42.632;23.440;2023-10-31T13:44:04;10.32;;;3.30;;
68178;SDS011;69812;42.632;23.440;2023-10-31T13:46:30;7.72;;;4.00;;
68178;SDS011;69812;42.632;23.440;2023-10-31T13:48:55;12.23;;;3.70;;
68178;SDS011;69812;42.632;23.440;2023-10-31T13:51:20;6.95;;;3.90;;
68178;SDS011;69812;42.632;23.440;2023-10-31T13:53:46;6.43;;;4.00;;
68178;SDS011;69812;42.632;23.440;2023-10-31T13:56:11;8.63;;;3.58;;
68178;SDS011;69812;42.632;23.440;2023-10-31T13:58:37;8.60;;;3.80;;
68178;SDS011;69812;42.632;23.440;2023-10-31T14:01:02;11.27;;;4.57;;
68178;SDS011;69812;42.632;23.440;2023-10-31T14:03:27;14.98;;;6.68;;
68178;SDS011;69812;42.632;23.440;2023-10-31T14:05:53;13.38;;;5.82;;
68178;SDS011;69812;42.632;23.440;2023-10-31T14:08:18;14.38;;;5.72;;
68178;SDS011;69812;42.632;23.440;2023-10-31T14:10:44;11.60;;;4.60;;
68178;SDS011;69812;42.632;23.440;2023-10-31T14:13:11;12.95;;;4.45;;
68178;SDS011;69812;42.632;23.440;2023-10-31T14:15:37;10.00;;;4.10;;
68178;SDS011;69812;42.632;23.440;2023-10-31T14:18:03;11.27;;;4.47;;
68178;SDS011;69812;42.632;23.440;2023-10-31T14:20:28;10.82;;;4.35;;
68178;SDS011;69812;42.632;23.440;2023-10-31T14:22:54;8.88;;;4.15;;
68178;SDS011;69812;42.632;23.440;2023-10-31T14:25:19;11.80;;;4.55;;
68178;SDS011;69812;42.632;23.440;2023-10-31T14:27:45;7.90;;;4.43;;
68178;SDS011;69812;42.632;23.440;2023-10-31T14:30:13;9.25;;;4.60;;
68178;SDS011;69812;42.632;23.440;2023-10-31T14:32:39;13.55;;;4.05;;
68178;SDS011;69812;42.632;23.440;2023-10-31T14:35:06;13.60;;;4.45;;
68178;SDS011;69812;42.632;23.440;2023-10-31T14:37:33;11.15;;;4.40;;
68178;SDS011;69812;42.632;23.440;2023-10-31T14:39:59;8.15;;;4.43;;
68178;SDS011;69812;42.632;23.440;2023-10-31T14:42:29;13.38;;;4.57;;